createdAt,value
2023-12-27T00:01:05.828Z,2.05
2023-12-27T00:03:34.397Z,2.01
2023-12-27T00:06:02.958Z,1.98
2023-12-27T00:08:31.238Z,1.95
2023-12-27T00:10:59.440Z,1.90
2023-12-27T00:13:27.621Z,1.84
2023-12-27T00:15:55.809Z,1.78
2023-12-27T00:18:24.125Z,1.77
2023-12-27T00:20:52.431Z,1.79
2023-12-27T00:23:20.898Z,1.75
2023-12-27T00:25:49.170Z,1.70
2023-12-27T00:28:17.387Z,1.66
2023-12-27T00:30:45.817Z,1.65
2023-12-27T00:33:14.198Z,1.62
2023-12-27T00:35:43.001Z,1.63
2023-12-27T00:38:12.194Z,1.58
2023-12-27T00:40:40.384Z,1.52
2023-12-27T00:43:08.705Z,1.48
2023-12-27T00:45:39.081Z,1.46
2023-12-27T00:48:07.606Z,1.44
2023-12-27T00:50:35.919Z,1.46
2023-12-27T00:53:04.708Z,1.44
2023-12-27T00:55:33.002Z,1.46
2023-12-27T00:58:01.288Z,1.47
2023-12-27T01:00:29.596Z,1.42
2023-12-27T01:02:57.965Z,1.35
2023-12-27T01:05:26.192Z,1.30
2023-12-27T01:07:54.652Z,1.29
2023-12-27T01:10:22.978Z,1.32
2023-12-27T01:12:51.463Z,1.36
2023-12-27T01:15:19.705Z,1.36
2023-12-27T01:17:47.975Z,1.37
2023-12-27T01:20:16.816Z,1.38
2023-12-27T01:22:45.080Z,1.35
2023-12-27T01:25:13.890Z,1.38
2023-12-27T01:27:42.225Z,1.41
2023-12-27T01:30:11.269Z,1.43
2023-12-27T01:32:39.626Z,1.47
2023-12-27T01:35:08.161Z,1.53
2023-12-27T01:37:36.496Z,1.57
2023-12-27T01:40:04.935Z,1.58
2023-12-27T01:42:35.441Z,1.61
2023-12-27T01:45:03.852Z,1.62
2023-12-27T01:47:32.278Z,1.54
2023-12-27T01:50:00.738Z,1.51
2023-12-27T01:52:29.047Z,1.53
2023-12-27T01:54:57.280Z,1.51
2023-12-27T01:57:25.643Z,1.52
2023-12-27T01:59:54.628Z,1.49
2023-12-27T02:02:24.612Z,1.49
2023-12-27T02:04:52.939Z,1.46
2023-12-27T02:07:28.220Z,1.44
2023-12-27T02:10:00.298Z,1.40
2023-12-27T02:12:33.092Z,1.39
2023-12-27T02:15:01.472Z,1.37
2023-12-27T02:17:30.468Z,1.39
2023-12-27T02:19:59.892Z,1.40
2023-12-27T02:22:29.205Z,1.38
2023-12-27T02:24:57.570Z,1.36
2023-12-27T02:27:26.013Z,1.35
2023-12-27T02:29:54.439Z,1.35
2023-12-27T02:32:22.789Z,1.37
2023-12-27T02:34:51.201Z,1.39
2023-12-27T02:37:19.516Z,1.39
2023-12-27T02:39:47.842Z,1.38
2023-12-27T02:42:16.111Z,1.40
2023-12-27T02:44:44.410Z,1.37
2023-12-27T02:47:13.085Z,1.41
2023-12-27T02:49:41.340Z,1.44
2023-12-27T02:52:09.599Z,1.45
2023-12-27T02:54:37.843Z,1.49
2023-12-27T02:57:06.163Z,1.53
2023-12-27T02:59:34.469Z,1.61
2023-12-27T03:02:02.686Z,1.65
2023-12-27T03:04:31.599Z,1.64
2023-12-27T03:07:01.014Z,1.62
2023-12-27T03:09:29.293Z,1.65
2023-12-27T03:11:58.704Z,1.66
2023-12-27T03:14:27.586Z,1.68
2023-12-27T03:16:56.723Z,1.72
2023-12-27T03:19:26.676Z,1.74
2023-12-27T03:21:54.972Z,1.74
2023-12-27T03:24:23.267Z,1.74
2023-12-27T03:26:51.498Z,1.77
2023-12-27T03:29:19.948Z,1.78
2023-12-27T03:31:48.285Z,1.79
2023-12-27T03:34:16.689Z,1.81
2023-12-27T03:36:45.010Z,1.85
2023-12-27T03:39:13.305Z,1.91
2023-12-27T03:41:41.506Z,1.94
2023-12-27T03:44:09.797Z,1.98
2023-12-27T03:46:38.403Z,2.01
2023-12-27T03:49:06.676Z,2.04
2023-12-27T03:51:35.202Z,2.07
2023-12-27T03:54:03.531Z,2.11
2023-12-27T03:56:31.731Z,2.13
2023-12-27T03:59:04.809Z,2.17
2023-12-27T04:01:33.188Z,2.23
2023-12-27T04:04:01.641Z,2.31
2023-12-27T04:06:30.232Z,2.37
2023-12-27T04:08:58.456Z,2.41
2023-12-27T04:11:26.700Z,2.45
2023-12-27T04:13:55.644Z,2.50
2023-12-27T04:16:23.961Z,2.52
2023-12-27T04:18:52.263Z,2.51
2023-12-27T04:21:21.655Z,2.56
2023-12-27T04:23:49.982Z,2.63
2023-12-27T04:26:18.335Z,2.69
2023-12-27T04:28:46.608Z,2.74
2023-12-27T04:31:14.872Z,2.80
2023-12-27T04:33:43.224Z,2.86
2023-12-27T04:36:11.550Z,2.91
2023-12-27T04:38:39.814Z,2.95
2023-12-27T04:41:09.545Z,2.95
2023-12-27T04:43:37.990Z,2.99
2023-12-27T04:46:08.288Z,3.02
2023-12-27T04:48:36.677Z,3.06
2023-12-27T04:51:05.134Z,3.12
2023-12-27T04:53:33.653Z,3.15
2023-12-27T04:56:01.860Z,3.18
2023-12-27T04:58:30.198Z,3.22
2023-12-27T05:00:58.510Z,3.26
2023-12-27T05:03:29.118Z,3.28
2023-12-27T05:05:57.703Z,3.31
2023-12-27T05:08:26.017Z,3.33
2023-12-27T05:10:54.238Z,3.37
2023-12-27T05:13:23.783Z,3.38
2023-12-27T05:15:52.047Z,3.42
2023-12-27T05:18:20.386Z,3.42
2023-12-27T05:20:48.621Z,3.44
2023-12-27T05:23:17.285Z,3.47
2023-12-27T05:25:45.509Z,3.50
2023-12-27T05:28:13.977Z,3.53
2023-12-27T05:30:42.733Z,3.54
2023-12-27T05:33:11.053Z,3.55
2023-12-27T05:35:39.503Z,3.62
2023-12-27T05:38:07.692Z,3.67
2023-12-27T05:40:35.888Z,3.72
2023-12-27T05:43:04.203Z,3.75
2023-12-27T05:45:32.427Z,3.75
2023-12-27T05:48:01.361Z,3.77
2023-12-27T05:50:29.485Z,3.80
2023-12-27T05:52:57.682Z,3.83
2023-12-27T05:55:26.030Z,3.84
2023-12-27T05:57:54.299Z,3.88
2023-12-27T06:00:22.906Z,3.92
2023-12-27T06:02:51.482Z,3.96
2023-12-27T06:05:21.064Z,3.97
2023-12-27T06:07:49.441Z,4.00
2023-12-27T06:10:17.630Z,4.02
2023-12-27T06:12:45.880Z,4.03
2023-12-27T06:15:14.225Z,4.06
2023-12-27T06:17:43.406Z,4.08
2023-12-27T06:20:11.569Z,4.08
2023-12-27T06:22:39.734Z,4.15
2023-12-27T06:25:08.194Z,4.17
2023-12-27T06:27:36.524Z,4.15
2023-12-27T06:30:05.617Z,4.18
2023-12-27T06:32:33.727Z,4.22
2023-12-27T06:35:01.956Z,4.24
2023-12-27T06:37:30.276Z,4.28
2023-12-27T06:39:58.511Z,4.29
2023-12-27T06:42:26.761Z,4.32
2023-12-27T06:44:55.377Z,4.34
2023-12-27T06:47:23.615Z,4.38
2023-12-27T06:49:51.956Z,4.40
2023-12-27T06:52:20.265Z,4.39
2023-12-27T06:54:48.465Z,4.39
2023-12-27T06:57:16.758Z,4.43
2023-12-27T06:59:45.066Z,4.44
2023-12-27T07:02:13.266Z,4.44
2023-12-27T07:04:43.828Z,4.45
2023-12-27T07:07:12.203Z,4.47
2023-12-27T07:09:40.596Z,4.50
2023-12-27T07:12:11.038Z,4.50
2023-12-27T07:14:39.906Z,4.52
2023-12-27T07:17:08.369Z,4.54
2023-12-27T07:19:36.840Z,4.57
2023-12-27T07:22:05.227Z,4.59
2023-12-27T07:24:34.021Z,4.61
2023-12-27T07:27:02.442Z,4.61
2023-12-27T07:29:30.702Z,4.63
2023-12-27T07:31:59.355Z,4.65
2023-12-27T07:34:27.562Z,4.67
2023-12-27T07:36:56.136Z,4.68
2023-12-27T07:39:24.412Z,4.69
2023-12-27T07:41:52.725Z,4.72
2023-12-27T07:44:22.642Z,4.75
2023-12-27T07:46:50.927Z,4.78
2023-12-27T07:49:19.354Z,4.81
2023-12-27T07:51:47.644Z,4.84
2023-12-27T07:54:15.950Z,4.87
2023-12-27T07:56:44.273Z,4.88
2023-12-27T07:59:12.586Z,4.93
2023-12-27T08:01:40.849Z,4.94
2023-12-27T08:04:09.193Z,4.98
2023-12-27T08:06:38.270Z,5.00
2023-12-27T08:09:06.731Z,5.02
2023-12-27T08:11:35.087Z,5.05
2023-12-27T08:14:03.409Z,5.05
2023-12-27T08:16:31.642Z,5.08
2023-12-27T08:18:59.938Z,5.08
2023-12-27T08:21:28.257Z,5.08
2023-12-27T08:23:56.487Z,5.09
2023-12-27T08:26:24.760Z,5.10
2023-12-27T08:28:53.002Z,5.10
2023-12-27T08:31:21.376Z,5.10
2023-12-27T08:33:51.827Z,5.11
2023-12-27T08:36:20.194Z,5.11
2023-12-27T08:38:48.404Z,5.13
2023-12-27T08:41:16.625Z,5.15
2023-12-27T08:43:45.986Z,5.15
2023-12-27T08:46:16.235Z,5.16
2023-12-27T08:48:44.594Z,5.18
2023-12-27T08:51:12.979Z,5.21
2023-12-27T08:53:41.242Z,5.22
2023-12-27T08:56:10.078Z,5.24
2023-12-27T08:58:38.326Z,5.26
2023-12-27T09:01:06.656Z,5.28
2023-12-27T09:03:35.150Z,5.29
2023-12-27T09:06:03.696Z,5.31
2023-12-27T09:08:32.036Z,5.33
2023-12-27T09:11:00.337Z,5.38
2023-12-27T09:13:28.530Z,5.41
2023-12-27T09:15:57.007Z,5.45
2023-12-27T09:18:25.401Z,5.48
2023-12-27T09:20:55.351Z,5.53
2023-12-27T09:23:23.620Z,5.55
2023-12-27T09:25:51.810Z,5.59
2023-12-27T09:28:20.382Z,5.63
2023-12-27T09:30:48.624Z,5.67
2023-12-27T09:33:18.485Z,5.73
2023-12-27T09:35:47.049Z,5.76
2023-12-27T09:38:15.296Z,5.79
2023-12-27T09:40:43.776Z,5.83
2023-12-27T09:43:13.586Z,5.86
2023-12-27T09:45:43.271Z,5.91
2023-12-27T09:48:13.867Z,5.96
2023-12-27T09:50:42.336Z,6.01
2023-12-27T09:53:12.296Z,6.07
2023-12-27T09:55:40.918Z,6.10
2023-12-27T09:58:09.276Z,6.13
2023-12-27T10:00:39.796Z,6.14
2023-12-27T10:03:11.948Z,6.15
2023-12-27T10:05:55.202Z,6.20
2023-12-27T10:08:23.481Z,6.24
2023-12-27T10:10:53.294Z,6.26
2023-12-27T10:13:21.828Z,6.34
2023-12-27T10:15:50.103Z,6.41
2023-12-27T10:18:18.684Z,6.47
2023-12-27T10:20:49.468Z,6.52
2023-12-27T10:23:17.726Z,6.55
2023-12-27T10:25:46.612Z,6.60
2023-12-27T10:28:15.097Z,6.66
2023-12-27T10:30:43.356Z,6.72
2023-12-27T10:33:14.769Z,6.73
2023-12-27T10:35:45.949Z,6.76
2023-12-27T10:38:14.173Z,6.79
2023-12-27T10:40:42.411Z,6.81
2023-12-27T10:43:11.002Z,6.87
2023-12-27T10:45:39.476Z,6.91
2023-12-27T10:48:08.124Z,6.92
2023-12-27T10:50:36.799Z,6.95
2023-12-27T10:53:09.311Z,7.01
2023-12-27T10:55:39.626Z,7.06
2023-12-27T10:58:14.759Z,7.14
2023-12-27T11:00:42.865Z,7.16
2023-12-27T11:03:14.477Z,7.19
2023-12-27T11:05:43.221Z,7.21
2023-12-27T11:08:14.521Z,7.21
2023-12-27T11:10:46.111Z,7.21
2023-12-27T11:13:20.685Z,7.24
2023-12-27T11:15:52.025Z,7.23
2023-12-27T11:18:20.785Z,7.21
2023-12-27T11:20:52.161Z,7.24
2023-12-27T11:23:20.400Z,7.24
2023-12-27T11:25:48.628Z,7.24
2023-12-27T11:28:17.298Z,7.24
2023-12-27T11:30:47.865Z,7.26
2023-12-27T11:33:27.542Z,7.28
2023-12-27T11:35:58.488Z,7.31
2023-12-27T11:38:27.780Z,7.34
2023-12-27T11:40:59.089Z,7.34
2023-12-27T11:43:28.416Z,7.39
2023-12-27T11:46:02.409Z,7.43
2023-12-27T11:48:37.620Z,7.45
2023-12-27T11:51:36.285Z,7.47
2023-12-27T11:54:07.625Z,7.49
2023-12-27T11:56:40.102Z,7.52
2023-12-27T11:59:10.153Z,7.54
2023-12-27T12:01:41.075Z,7.61
2023-12-27T12:04:12.266Z,7.63
2023-12-27T12:06:58.113Z,7.68
2023-12-27T12:09:39.956Z,7.71
2023-12-27T12:12:21.475Z,7.77
2023-12-27T12:14:57.176Z,7.80
2023-12-27T12:17:28.626Z,7.86
2023-12-27T12:19:57.471Z,7.89
2023-12-27T12:22:25.996Z,7.90
2023-12-27T12:24:54.278Z,7.90
2023-12-27T12:27:25.409Z,7.90
2023-12-27T12:29:55.260Z,7.93
2023-12-27T12:32:23.616Z,7.95
2023-12-27T12:34:51.911Z,7.98
2023-12-27T12:37:20.327Z,7.99
2023-12-27T12:39:48.640Z,8.00
2023-12-27T12:42:17.058Z,8.00
2023-12-27T12:44:46.739Z,8.02
2023-12-27T12:47:15.028Z,8.03
2023-12-27T12:49:43.378Z,8.08
2023-12-27T12:52:11.672Z,8.10
2023-12-27T12:54:39.938Z,8.09
2023-12-27T12:57:08.241Z,8.10
2023-12-27T12:59:36.602Z,8.11
2023-12-27T13:02:04.914Z,8.13
2023-12-27T13:04:33.169Z,8.15
2023-12-27T13:07:02.578Z,8.18
2023-12-27T13:09:30.820Z,8.19
2023-12-27T13:12:00.028Z,8.18
2023-12-27T13:14:28.357Z,8.18
2023-12-27T13:16:56.736Z,8.18
2023-12-27T13:19:25.148Z,8.18
2023-12-27T13:21:54.286Z,8.19
2023-12-27T13:24:22.578Z,8.18
2023-12-27T13:26:50.829Z,8.18
2023-12-27T13:29:19.801Z,8.19
2023-12-27T13:31:48.042Z,8.20
2023-12-27T13:34:16.858Z,8.23
2023-12-27T13:36:47.734Z,8.22
2023-12-27T13:39:16.801Z,8.24
2023-12-27T13:41:45.071Z,8.21
2023-12-27T13:44:13.286Z,8.20
2023-12-27T13:46:41.519Z,8.19
2023-12-27T13:49:10.762Z,8.16
2023-12-27T13:51:39.226Z,8.17
2023-12-27T13:54:17.803Z,8.15
2023-12-27T13:56:53.230Z,8.17
2023-12-27T13:59:21.501Z,8.18
2023-12-27T14:01:50.018Z,8.15
2023-12-27T14:04:18.582Z,8.14
2023-12-27T14:06:46.939Z,8.14
2023-12-27T14:09:18.153Z,8.12
2023-12-27T14:11:46.963Z,8.10
2023-12-27T14:14:15.194Z,8.10
2023-12-27T14:16:44.777Z,8.10
2023-12-27T14:19:14.956Z,8.08
2023-12-27T14:21:43.634Z,8.07
2023-12-27T14:24:14.098Z,8.07
2023-12-27T14:26:43.882Z,8.04
2023-12-27T14:29:12.379Z,8.00
2023-12-27T14:31:41.112Z,7.98
2023-12-27T14:34:09.717Z,7.95
2023-12-27T14:36:42.013Z,7.94
2023-12-27T14:39:13.153Z,7.97
2023-12-27T14:41:44.788Z,7.95
2023-12-27T14:44:14.208Z,7.90
2023-12-27T14:46:45.392Z,7.91
2023-12-27T14:49:13.779Z,7.87
2023-12-27T14:51:42.386Z,7.84
2023-12-27T14:54:10.802Z,7.83
2023-12-27T14:56:39.052Z,7.84
2023-12-27T14:59:07.542Z,7.83
2023-12-27T15:01:36.038Z,7.80
2023-12-27T15:04:09.856Z,7.79
2023-12-27T15:06:38.477Z,7.77
2023-12-27T15:09:07.000Z,7.78
2023-12-27T15:11:35.322Z,7.78
2023-12-27T15:14:03.569Z,7.80
2023-12-27T15:16:31.796Z,7.80
2023-12-27T15:19:00.502Z,7.80
2023-12-27T15:21:30.310Z,7.82
2023-12-27T15:23:58.665Z,7.76
2023-12-27T15:26:28.113Z,7.78
2023-12-27T15:28:56.926Z,7.76
2023-12-27T15:31:28.914Z,7.77
2023-12-27T15:34:01.182Z,7.75
2023-12-27T15:36:29.796Z,7.77
2023-12-27T15:38:57.990Z,7.76
2023-12-27T15:41:30.080Z,7.76
2023-12-27T15:44:00.901Z,7.73
2023-12-27T15:46:31.201Z,7.73
2023-12-27T15:49:00.678Z,7.73
2023-12-27T15:51:35.835Z,7.76
2023-12-27T15:54:07.375Z,7.77
2023-12-27T15:56:42.738Z,7.71
2023-12-27T15:59:12.891Z,7.68
2023-12-27T16:01:44.276Z,7.70
2023-12-27T16:04:15.620Z,7.72
2023-12-27T16:06:47.117Z,7.72
2023-12-27T16:09:16.017Z,7.69
2023-12-27T16:11:44.952Z,7.64
2023-12-27T16:14:14.035Z,7.64
2023-12-27T16:16:45.328Z,7.65
2023-12-27T16:19:13.981Z,7.61
2023-12-27T16:21:43.415Z,7.60
2023-12-27T16:24:11.923Z,7.61
2023-12-27T16:26:40.161Z,7.63
2023-12-27T16:29:08.383Z,7.59
2023-12-27T16:31:36.640Z,7.60
2023-12-27T16:34:05.069Z,7.57
2023-12-27T16:36:33.636Z,7.54
2023-12-27T16:39:01.872Z,7.56
2023-12-27T16:41:30.184Z,7.52
2023-12-27T16:44:00.749Z,7.49
2023-12-27T16:46:29.297Z,7.51
2023-12-27T16:48:59.878Z,7.48
2023-12-27T16:51:28.453Z,7.48
2023-12-27T16:53:56.800Z,7.47
2023-12-27T16:56:25.571Z,7.41
2023-12-27T16:58:53.795Z,7.35
2023-12-27T17:01:22.101Z,7.29
2023-12-27T17:03:50.829Z,7.30
2023-12-27T17:06:19.301Z,7.28
2023-12-27T17:08:47.506Z,7.28
2023-12-27T17:11:15.958Z,7.25
2023-12-27T17:13:44.197Z,7.28
2023-12-27T17:16:12.924Z,7.28
2023-12-27T17:18:41.400Z,7.25
2023-12-27T17:21:09.737Z,7.24
2023-12-27T17:23:37.967Z,7.27
2023-12-27T17:26:10.533Z,7.30
2023-12-27T17:28:39.709Z,7.26
2023-12-27T17:31:08.120Z,7.26
2023-12-27T17:33:36.567Z,7.25
2023-12-27T17:36:05.049Z,7.22
2023-12-27T17:38:34.212Z,7.17
2023-12-27T17:41:03.570Z,7.16
2023-12-27T17:43:33.108Z,7.18
2023-12-27T17:46:01.364Z,7.20
2023-12-27T17:48:33.490Z,7.17
2023-12-27T17:51:01.851Z,7.15
2023-12-27T17:53:30.235Z,7.10
2023-12-27T17:55:58.464Z,7.10
2023-12-27T17:58:28.198Z,7.03
2023-12-27T18:00:56.670Z,7.04
2023-12-27T18:03:25.131Z,7.10
2023-12-27T18:05:55.838Z,7.14
2023-12-27T18:08:24.195Z,7.17
2023-12-27T18:10:52.463Z,7.17
2023-12-27T18:13:20.855Z,7.13
2023-12-27T18:15:49.414Z,7.08
2023-12-27T18:18:19.082Z,7.03
2023-12-27T18:20:47.554Z,7.02
2023-12-27T18:23:15.993Z,7.14
2023-12-27T18:25:44.247Z,7.19
2023-12-27T18:28:12.486Z,7.18
2023-12-27T18:30:41.857Z,7.16
2023-12-27T18:33:10.379Z,7.10
2023-12-27T18:35:38.733Z,7.10
2023-12-27T18:38:06.963Z,7.13
2023-12-27T18:40:36.712Z,7.21
2023-12-27T18:43:06.288Z,7.22
2023-12-27T18:45:34.736Z,7.22
2023-12-27T18:48:06.478Z,7.19
2023-12-27T18:50:37.124Z,7.16
2023-12-27T18:53:05.515Z,7.22
2023-12-27T18:55:34.432Z,7.25
2023-12-27T18:58:08.334Z,7.21
2023-12-27T19:00:36.712Z,7.35
2023-12-27T19:03:05.287Z,7.36
2023-12-27T19:05:34.619Z,7.37
2023-12-27T19:08:02.887Z,7.44
2023-12-27T19:10:32.529Z,7.54
2023-12-27T19:13:00.919Z,7.64
2023-12-27T19:15:29.430Z,7.63
2023-12-27T19:17:57.790Z,7.64
2023-12-27T19:20:26.167Z,7.70
2023-12-27T19:22:54.482Z,7.68
2023-12-27T19:25:22.832Z,7.72
2023-12-27T19:27:51.335Z,7.80
2023-12-27T19:30:19.777Z,7.85
2023-12-27T19:32:48.138Z,7.92
2023-12-27T19:35:18.468Z,7.93
2023-12-27T19:37:46.864Z,7.99
2023-12-27T19:40:15.377Z,8.03
2023-12-27T19:42:43.687Z,8.06
2023-12-27T19:45:12.137Z,8.06
2023-12-27T19:47:40.453Z,8.09
2023-12-27T19:50:09.085Z,8.09
2023-12-27T19:52:37.419Z,8.17
2023-12-27T19:55:13.358Z,8.20
2023-12-27T19:57:41.906Z,8.16
2023-12-27T20:00:13.254Z,8.24
2023-12-27T20:02:41.986Z,8.28
2023-12-27T20:05:10.228Z,8.32
2023-12-27T20:07:38.454Z,8.33
2023-12-27T20:10:06.963Z,8.14
2023-12-27T20:12:36.321Z,7.94
2023-12-27T20:15:08.475Z,7.78
2023-12-27T20:17:36.846Z,7.69
2023-12-27T20:20:05.500Z,7.68
2023-12-27T20:22:34.012Z,7.58
2023-12-27T20:25:02.264Z,7.54
2023-12-27T20:27:30.495Z,7.52
2023-12-27T20:29:58.673Z,7.50
2023-12-27T20:32:26.901Z,7.50
2023-12-27T20:34:58.040Z,7.51
2023-12-27T20:37:26.757Z,7.45
2023-12-27T20:39:56.014Z,7.52
2023-12-27T20:42:24.353Z,7.54
2023-12-27T20:44:53.377Z,7.57
2023-12-27T20:47:21.684Z,7.63
2023-12-27T20:49:50.219Z,7.70
2023-12-27T20:52:18.646Z,7.70
2023-12-27T20:54:46.924Z,7.69
2023-12-27T20:57:15.365Z,7.70
2023-12-27T20:59:43.924Z,7.71
2023-12-27T21:02:12.328Z,7.80
2023-12-27T21:04:40.657Z,7.82
2023-12-27T21:07:09.027Z,7.89
2023-12-27T21:09:37.379Z,7.89
2023-12-27T21:12:06.906Z,7.93
2023-12-27T21:14:35.117Z,7.96
2023-12-27T21:17:03.396Z,7.95
2023-12-27T21:19:32.827Z,7.93
2023-12-27T21:22:01.095Z,7.89
2023-12-27T21:24:29.352Z,7.90
2023-12-27T21:26:57.579Z,7.87
2023-12-27T21:29:25.839Z,7.84
2023-12-27T21:31:54.067Z,7.84
2023-12-27T21:34:22.797Z,7.85
2023-12-27T21:36:51.148Z,7.84
2023-12-27T21:39:19.454Z,7.89
2023-12-27T21:41:47.805Z,7.87
2023-12-27T21:44:16.056Z,7.86
2023-12-27T21:46:44.445Z,7.84
2023-12-27T21:49:12.859Z,7.82
2023-12-27T21:51:41.296Z,7.79
2023-12-27T21:54:09.568Z,7.78
2023-12-27T21:56:38.018Z,7.81
2023-12-27T21:59:07.122Z,7.85
2023-12-27T22:01:36.383Z,7.89
2023-12-27T22:04:07.214Z,7.93
2023-12-27T22:06:35.650Z,7.95
2023-12-27T22:09:03.988Z,7.95
2023-12-27T22:11:32.750Z,7.98
2023-12-27T22:14:04.149Z,7.93
2023-12-27T22:16:32.907Z,7.88
2023-12-27T22:19:01.756Z,7.87
2023-12-27T22:21:31.412Z,7.84
2023-12-27T22:23:59.863Z,7.84
2023-12-27T22:26:28.380Z,7.86
2023-12-27T22:28:56.583Z,7.87
2023-12-27T22:31:25.667Z,7.87
2023-12-27T22:33:54.125Z,7.92
2023-12-27T22:36:24.801Z,7.96
2023-12-27T22:38:57.131Z,7.95
2023-12-27T22:41:25.463Z,7.98
2023-12-27T22:43:53.832Z,8.02
2023-12-27T22:46:22.136Z,8.01
2023-12-27T22:48:50.513Z,8.00
2023-12-27T22:51:19.011Z,8.04
2023-12-27T22:53:47.327Z,8.15
2023-12-27T22:56:15.604Z,8.16
2023-12-27T22:58:43.899Z,8.17
2023-12-27T23:01:12.177Z,8.20
2023-12-27T23:03:40.516Z,8.25
2023-12-27T23:06:10.724Z,8.28
2023-12-27T23:08:39.439Z,8.35
2023-12-27T23:11:07.711Z,8.37
2023-12-27T23:13:35.948Z,8.37
2023-12-27T23:16:04.223Z,8.38
2023-12-27T23:18:32.597Z,8.37
2023-12-27T23:21:00.875Z,8.37
2023-12-27T23:23:29.080Z,8.36
2023-12-27T23:25:57.340Z,8.37
2023-12-27T23:28:25.712Z,8.38
2023-12-27T23:30:54.147Z,8.44
2023-12-27T23:33:22.785Z,8.48
2023-12-27T23:35:51.143Z,8.53
2023-12-27T23:38:19.395Z,8.59
2023-12-27T23:40:48.201Z,8.62
2023-12-27T23:43:16.482Z,8.68
2023-12-27T23:45:44.979Z,8.71
2023-12-27T23:48:13.555Z,8.75
2023-12-27T23:50:41.893Z,8.82
2023-12-27T23:53:10.223Z,8.86
2023-12-27T23:55:38.423Z,8.91
2023-12-27T23:58:06.726Z,8.96
